sensor_id;sensor_type;location;lat;lon;timestamp;P1;durP1;ratioP1;P2;durP2;ratioP2
42802;SDS011;28447;48.682;9.022;2023-09-19T04:00:44;6.20;;;2.70;;
42802;SDS011;28447;48.682;9.022;2023-09-19T04:03:10;3.20;;;2.40;;
42802;SDS011;28447;48.682;9.022;2023-09-19T04:05:44;2.60;;;2.13;;
42802;SDS011;28447;48.682;9.022;2023-09-19T04:08:11;2.77;;;2.40;;
42802;SDS011;28447;48.682;9.022;2023-09-19T04:10:37;3.30;;;2.40;;
42802;SDS011;28447;48.682;9.022;2023-09-19T04:13:03;2.70;;;2.30;;
42802;SDS011;28447;48.682;9.022;2023-09-19T04:15:29;6.13;;;2.37;;
42802;SDS011;28447;48.682;9.022;2023-09-19T04:17:54;5.53;;;2.20;;
42802;SDS011;28447;48.682;9.022;2023-09-19T04:20:20;2.40;;;2.20;;
42802;SDS011;28447;48.682;9.022;2023-09-19T04:22:48;4.70;;;2.40;;
42802;SDS011;28447;48.682;9.022;2023-09-19T04:25:14;7.40;;;2.53;;
42802;SDS011;28447;48.682;9.022;2023-09-19T04:27:39;3.87;;;2.27;;
42802;SDS011;28447;48.682;9.022;2023-09-19T04:30:06;3.50;;;2.07;;
42802;SDS011;28447;48.682;9.022;2023-09-19T04:32:36;2.60;;;2.30;;
42802;SDS011;28447;48.682;9.022;2023-09-19T04:35:08;9.00;;;2.40;;
42802;SDS011;28447;48.682;9.022;2023-09-19T04:37:36;10.43;;;2.90;;
42802;SDS011;28447;48.682;9.022;2023-09-19T04:40:03;3.00;;;2.00;;
42802;SDS011;28447;48.682;9.022;2023-09-19T04:42:31;4.43;;;2.23;;
42802;SDS011;28447;48.682;9.022;2023-09-19T04:44:57;3.90;;;2.00;;
42802;SDS011;28447;48.682;9.022;2023-09-19T04:47:24;2.40;;;1.83;;
42802;SDS011;28447;48.682;9.022;2023-09-19T04:49:51;3.77;;;2.20;;
42802;SDS011;28447;48.682;9.022;2023-09-19T04:52:16;2.33;;;2.03;;
42802;SDS011;28447;48.682;9.022;2023-09-19T04:54:42;4.93;;;2.03;;
42802;SDS011;28447;48.682;9.022;2023-09-19T04:57:08;2.57;;;1.93;;
42802;SDS011;28447;48.682;9.022;2023-09-19T04:59:33;2.40;;;2.20;;
42802;SDS011;28447;48.682;9.022;2023-09-19T05:01:59;2.80;;;2.50;;
42802;SDS011;28447;48.682;9.022;2023-09-19T05:04:24;3.53;;;2.03;;
42802;SDS011;28447;48.682;9.022;2023-09-19T05:06:50;5.73;;;2.30;;
42802;SDS011;28447;48.682;9.022;2023-09-19T05:09:16;3.43;;;2.63;;
42802;SDS011;28447;48.682;9.022;2023-09-19T05:11:44;2.73;;;2.40;;
42802;SDS011;28447;48.682;9.022;2023-09-19T05:14:11;7.40;;;2.50;;
42802;SDS011;28447;48.682;9.022;2023-09-19T05:16:37;3.73;;;2.80;;
42802;SDS011;28447;48.682;9.022;2023-09-19T05:19:02;3.93;;;2.73;;
42802;SDS011;28447;48.682;9.022;2023-09-19T05:21:28;4.37;;;2.80;;
42802;SDS011;28447;48.682;9.022;2023-09-19T05:23:55;2.80;;;2.50;;
42802;SDS011;28447;48.682;9.022;2023-09-19T05:26:21;4.10;;;2.87;;
42802;SDS011;28447;48.682;9.022;2023-09-19T05:28:47;4.73;;;2.57;;
42802;SDS011;28447;48.682;9.022;2023-09-19T05:31:15;3.60;;;2.60;;
42802;SDS011;28447;48.682;9.022;2023-09-19T05:33:41;6.83;;;3.20;;
42802;SDS011;28447;48.682;9.022;2023-09-19T05:36:07;5.30;;;3.10;;
42802;SDS011;28447;48.682;9.022;2023-09-19T05:38:35;2.40;;;2.20;;
42802;SDS011;28447;48.682;9.022;2023-09-19T05:41:02;3.80;;;3.43;;
42802;SDS011;28447;48.682;9.022;2023-09-19T05:43:27;4.83;;;2.70;;
42802;SDS011;28447;48.682;9.022;2023-09-19T05:45:53;4.50;;;2.50;;
42802;SDS011;28447;48.682;9.022;2023-09-19T05:48:21;4.63;;;2.50;;
42802;SDS011;28447;48.682;9.022;2023-09-19T05:50:47;5.90;;;2.47;;
42802;SDS011;28447;48.682;9.022;2023-09-19T05:53:13;6.10;;;2.83;;
42802;SDS011;28447;48.682;9.022;2023-09-19T05:55:40;3.07;;;2.77;;
42802;SDS011;28447;48.682;9.022;2023-09-19T05:58:06;7.00;;;2.53;;
42802;SDS011;28447;48.682;9.022;2023-09-19T06:00:32;3.40;;;2.50;;
42802;SDS011;28447;48.682;9.022;2023-09-19T06:02:58;3.90;;;3.13;;
42802;SDS011;28447;48.682;9.022;2023-09-19T06:05:25;3.87;;;3.27;;
42802;SDS011;28447;48.682;9.022;2023-09-19T06:07:56;5.33;;;3.00;;
42802;SDS011;28447;48.682;9.022;2023-09-19T06:10:25;4.57;;;2.50;;
42802;SDS011;28447;48.682;9.022;2023-09-19T06:12:53;3.33;;;2.63;;
42802;SDS011;28447;48.682;9.022;2023-09-19T06:15:20;3.00;;;2.40;;
42802;SDS011;28447;48.682;9.022;2023-09-19T06:17:51;3.37;;;2.13;;
42802;SDS011;28447;48.682;9.022;2023-09-19T06:20:20;2.60;;;2.17;;
42802;SDS011;28447;48.682;9.022;2023-09-19T06:22:47;2.50;;;2.10;;
42802;SDS011;28447;48.682;9.022;2023-09-19T06:25:17;2.33;;;2.13;;
42802;SDS011;28447;48.682;9.022;2023-09-19T06:27:47;3.27;;;2.50;;
42802;SDS011;28447;48.682;9.022;2023-09-19T06:30:23;4.47;;;3.13;;
42802;SDS011;28447;48.682;9.022;2023-09-19T06:32:49;3.80;;;3.07;;
42802;SDS011;28447;48.682;9.022;2023-09-19T06:35:23;3.00;;;2.43;;
42802;SDS011;28447;48.682;9.022;2023-09-19T06:37:51;3.47;;;2.57;;
42802;SDS011;28447;48.682;9.022;2023-09-19T06:40:17;2.83;;;2.40;;
42802;SDS011;28447;48.682;9.022;2023-09-19T06:42:45;3.43;;;2.50;;
42802;SDS011;28447;48.682;9.022;2023-09-19T06:45:21;5.63;;;2.57;;
42802;SDS011;28447;48.682;9.022;2023-09-19T06:47:50;4.40;;;2.53;;
42802;SDS011;28447;48.682;9.022;2023-09-19T06:50:17;4.07;;;2.57;;
42802;SDS011;28447;48.682;9.022;2023-09-19T06:52:45;4.23;;;2.87;;
42802;SDS011;28447;48.682;9.022;2023-09-19T06:55:13;3.33;;;2.50;;
42802;SDS011;28447;48.682;9.022;2023-09-19T06:57:41;2.80;;;2.60;;
42802;SDS011;28447;48.682;9.022;2023-09-19T07:00:08;3.03;;;2.23;;
42802;SDS011;28447;48.682;9.022;2023-09-19T07:02:41;4.00;;;2.40;;
42802;SDS011;28447;48.682;9.022;2023-09-19T07:05:07;3.20;;;2.30;;
42802;SDS011;28447;48.682;9.022;2023-09-19T07:07:33;2.43;;;2.00;;
42802;SDS011;28447;48.682;9.022;2023-09-19T07:10:00;4.43;;;2.30;;
42802;SDS011;28447;48.682;9.022;2023-09-19T07:12:26;3.83;;;2.00;;
42802;SDS011;28447;48.682;9.022;2023-09-19T07:14:52;2.30;;;2.00;;
42802;SDS011;28447;48.682;9.022;2023-09-19T07:17:18;5.50;;;2.33;;
42802;SDS011;28447;48.682;9.022;2023-09-19T07:19:44;2.63;;;2.40;;
42802;SDS011;28447;48.682;9.022;2023-09-19T07:22:10;3.03;;;2.30;;
42802;SDS011;28447;48.682;9.022;2023-09-19T07:24:36;3.40;;;2.27;;
42802;SDS011;28447;48.682;9.022;2023-09-19T07:27:03;5.60;;;2.50;;
42802;SDS011;28447;48.682;9.022;2023-09-19T07:29:30;3.40;;;2.63;;
42802;SDS011;28447;48.682;9.022;2023-09-19T07:31:56;4.87;;;2.50;;
42802;SDS011;28447;48.682;9.022;2023-09-19T07:34:22;3.40;;;2.23;;
42802;SDS011;28447;48.682;9.022;2023-09-19T07:36:49;2.50;;;2.20;;
42802;SDS011;28447;48.682;9.022;2023-09-19T07:39:15;2.57;;;2.37;;
42802;SDS011;28447;48.682;9.022;2023-09-19T07:41:40;2.70;;;2.23;;
42802;SDS011;28447;48.682;9.022;2023-09-19T07:44:07;2.90;;;2.47;;
42802;SDS011;28447;48.682;9.022;2023-09-19T07:46:35;4.10;;;2.23;;
42802;SDS011;28447;48.682;9.022;2023-09-19T07:49:00;2.47;;;2.10;;
42802;SDS011;28447;48.682;9.022;2023-09-19T07:51:26;2.50;;;2.00;;
42802;SDS011;28447;48.682;9.022;2023-09-19T07:53:52;3.67;;;2.40;;
42802;SDS011;28447;48.682;9.022;2023-09-19T07:56:18;2.30;;;2.10;;
42802;SDS011;28447;48.682;9.022;2023-09-19T07:58:45;4.63;;;2.50;;
42802;SDS011;28447;48.682;9.022;2023-09-19T08:01:11;9.10;;;2.43;;
42802;SDS011;28447;48.682;9.022;2023-09-19T08:03:39;2.80;;;2.40;;
42802;SDS011;28447;48.682;9.022;2023-09-19T08:06:10;3.90;;;1.90;;
42802;SDS011;28447;48.682;9.022;2023-09-19T08:08:36;3.93;;;2.30;;
42802;SDS011;28447;48.682;9.022;2023-09-19T08:11:03;2.73;;;2.43;;
42802;SDS011;28447;48.682;9.022;2023-09-19T08:13:36;3.20;;;2.20;;
42802;SDS011;28447;48.682;9.022;2023-09-19T08:16:06;3.03;;;2.23;;
42802;SDS011;28447;48.682;9.022;2023-09-19T08:18:32;3.20;;;2.33;;
42802;SDS011;28447;48.682;9.022;2023-09-19T08:20:58;5.10;;;2.53;;
42802;SDS011;28447;48.682;9.022;2023-09-19T08:23:25;2.70;;;2.50;;
42802;SDS011;28447;48.682;9.022;2023-09-19T08:25:55;3.43;;;2.80;;
42802;SDS011;28447;48.682;9.022;2023-09-19T08:28:21;3.63;;;2.27;;
42802;SDS011;28447;48.682;9.022;2023-09-19T08:30:49;2.43;;;2.17;;
42802;SDS011;28447;48.682;9.022;2023-09-19T08:33:16;2.53;;;2.07;;
42802;SDS011;28447;48.682;9.022;2023-09-19T08:35:42;3.80;;;1.90;;
42802;SDS011;28447;48.682;9.022;2023-09-19T08:38:09;4.57;;;2.30;;
42802;SDS011;28447;48.682;9.022;2023-09-19T08:40:38;2.40;;;2.07;;
42802;SDS011;28447;48.682;9.022;2023-09-19T08:43:06;3.10;;;2.00;;
42802;SDS011;28447;48.682;9.022;2023-09-19T08:45:32;2.90;;;2.30;;
42802;SDS011;28447;48.682;9.022;2023-09-19T08:50:55;2.80;;;1.93;;
42802;SDS011;28447;48.682;9.022;2023-09-19T08:56:11;5.30;;;2.20;;
42802;SDS011;28447;48.682;9.022;2023-09-19T08:59:20;2.30;;;1.90;;
42802;SDS011;28447;48.682;9.022;2023-09-19T09:01:27;2.67;;;1.93;;
42802;SDS011;28447;48.682;9.022;2023-09-19T09:03:55;3.43;;;2.07;;
42802;SDS011;28447;48.682;9.022;2023-09-19T09:06:22;1.90;;;1.70;;
42802;SDS011;28447;48.682;9.022;2023-09-19T09:08:50;3.77;;;2.13;;
42802;SDS011;28447;48.682;9.022;2023-09-19T09:11:16;5.20;;;2.50;;
42802;SDS011;28447;48.682;9.022;2023-09-19T09:13:45;2.37;;;2.00;;
42802;SDS011;28447;48.682;9.022;2023-09-19T09:16:12;3.40;;;2.13;;
42802;SDS011;28447;48.682;9.022;2023-09-19T09:18:38;2.83;;;2.17;;
42802;SDS011;28447;48.682;9.022;2023-09-19T09:21:05;3.23;;;2.17;;
42802;SDS011;28447;48.682;9.022;2023-09-19T09:23:31;2.53;;;2.00;;
42802;SDS011;28447;48.682;9.022;2023-09-19T09:25:57;4.40;;;2.37;;
42802;SDS011;28447;48.682;9.022;2023-09-19T09:28:34;2.40;;;1.90;;
42802;SDS011;28447;48.682;9.022;2023-09-19T09:31:04;3.10;;;2.10;;
42802;SDS011;28447;48.682;9.022;2023-09-19T09:33:37;2.37;;;1.60;;
42802;SDS011;28447;48.682;9.022;2023-09-19T09:36:04;2.13;;;1.77;;
42802;SDS011;28447;48.682;9.022;2023-09-19T09:38:44;2.57;;;2.07;;
42802;SDS011;28447;48.682;9.022;2023-09-19T09:41:11;3.70;;;2.03;;
42802;SDS011;28447;48.682;9.022;2023-09-19T09:43:52;4.00;;;2.30;;
42802;SDS011;28447;48.682;9.022;2023-09-19T09:46:18;2.13;;;1.90;;
42802;SDS011;28447;48.682;9.022;2023-09-19T09:48:48;3.20;;;2.30;;
42802;SDS011;28447;48.682;9.022;2023-09-19T09:51:49;3.10;;;1.83;;
42802;SDS011;28447;48.682;9.022;2023-09-19T09:54:38;4.57;;;2.33;;
42802;SDS011;28447;48.682;9.022;2023-09-19T09:57:23;2.73;;;1.87;;
42802;SDS011;28447;48.682;9.022;2023-09-19T10:02:27;3.10;;;2.03;;
42802;SDS011;28447;48.682;9.022;2023-09-19T10:07:49;3.47;;;2.43;;
42802;SDS011;28447;48.682;9.022;2023-09-19T10:10:37;3.27;;;2.00;;
42802;SDS011;28447;48.682;9.022;2023-09-19T10:13:07;2.47;;;2.00;;
42802;SDS011;28447;48.682;9.022;2023-09-19T10:15:37;2.53;;;1.90;;
42802;SDS011;28447;48.682;9.022;2023-09-19T10:18:06;4.10;;;2.30;;
42802;SDS011;28447;48.682;9.022;2023-09-19T10:20:33;2.30;;;2.00;;
42802;SDS011;28447;48.682;9.022;2023-09-19T10:23:10;2.87;;;1.97;;
42802;SDS011;28447;48.682;9.022;2023-09-19T10:25:41;3.10;;;1.97;;
42802;SDS011;28447;48.682;9.022;2023-09-19T10:28:07;2.43;;;2.17;;
42802;SDS011;28447;48.682;9.022;2023-09-19T10:30:38;3.10;;;1.97;;
42802;SDS011;28447;48.682;9.022;2023-09-19T10:33:09;5.93;;;2.07;;
42802;SDS011;28447;48.682;9.022;2023-09-19T10:35:37;3.60;;;2.10;;
42802;SDS011;28447;48.682;9.022;2023-09-19T10:38:05;2.60;;;1.83;;
42802;SDS011;28447;48.682;9.022;2023-09-19T10:40:34;2.60;;;1.67;;
42802;SDS011;28447;48.682;9.022;2023-09-19T10:43:04;3.97;;;2.13;;
42802;SDS011;28447;48.682;9.022;2023-09-19T10:45:31;2.50;;;1.77;;
42802;SDS011;28447;48.682;9.022;2023-09-19T10:47:57;2.50;;;1.80;;
42802;SDS011;28447;48.682;9.022;2023-09-19T10:50:23;4.73;;;1.70;;
42802;SDS011;28447;48.682;9.022;2023-09-19T10:52:50;4.30;;;1.90;;
42802;SDS011;28447;48.682;9.022;2023-09-19T10:55:25;2.90;;;2.20;;
42802;SDS011;28447;48.682;9.022;2023-09-19T10:57:53;2.23;;;1.93;;
42802;SDS011;28447;48.682;9.022;2023-09-19T11:00:22;2.43;;;1.90;;
42802;SDS011;28447;48.682;9.022;2023-09-19T11:11:47;3.03;;;1.97;;
42802;SDS011;28447;48.682;9.022;2023-09-19T11:30:37;5.73;;;2.40;;
42802;SDS011;28447;48.682;9.022;2023-09-19T11:39:20;2.97;;;2.10;;
42802;SDS011;28447;48.682;9.022;2023-09-19T11:43:54;3.13;;;2.20;;
42802;SDS011;28447;48.682;9.022;2023-09-19T11:51:55;2.37;;;1.77;;
42802;SDS011;28447;48.682;9.022;2023-09-19T11:54:22;2.30;;;1.80;;
42802;SDS011;28447;48.682;9.022;2023-09-19T11:56:53;2.67;;;2.10;;
42802;SDS011;28447;48.682;9.022;2023-09-19T11:59:22;1.97;;;1.60;;
42802;SDS011;28447;48.682;9.022;2023-09-19T12:01:52;2.57;;;2.07;;
42802;SDS011;28447;48.682;9.022;2023-09-19T12:07:14;2.97;;;1.93;;
42802;SDS011;28447;48.682;9.022;2023-09-19T12:09:40;2.63;;;2.03;;
42802;SDS011;28447;48.682;9.022;2023-09-19T12:12:20;3.47;;;2.13;;
42802;SDS011;28447;48.682;9.022;2023-09-19T12:15:00;3.27;;;2.30;;
42802;SDS011;28447;48.682;9.022;2023-09-19T12:17:41;2.47;;;1.80;;
42802;SDS011;28447;48.682;9.022;2023-09-19T12:20:08;2.00;;;1.80;;
42802;SDS011;28447;48.682;9.022;2023-09-19T12:22:43;2.40;;;1.92;;
42802;SDS011;28447;48.682;9.022;2023-09-19T12:25:11;4.07;;;2.05;;
42802;SDS011;28447;48.682;9.022;2023-09-19T12:27:43;2.20;;;2.00;;
42802;SDS011;28447;48.682;9.022;2023-09-19T12:30:12;3.92;;;2.38;;
42802;SDS011;28447;48.682;9.022;2023-09-19T12:32:42;2.80;;;1.98;;
42802;SDS011;28447;48.682;9.022;2023-09-19T12:35:09;1.83;;;1.60;;
42802;SDS011;28447;48.682;9.022;2023-09-19T12:37:45;4.53;;;2.25;;
42802;SDS011;28447;48.682;9.022;2023-09-19T12:40:18;3.20;;;2.10;;
42802;SDS011;28447;48.682;9.022;2023-09-19T12:42:52;4.18;;;2.13;;
42802;SDS011;28447;48.682;9.022;2023-09-19T12:45:20;2.17;;;1.85;;
42802;SDS011;28447;48.682;9.022;2023-09-19T12:50:33;3.60;;;2.53;;
42802;SDS011;28447;48.682;9.022;2023-09-19T12:52:59;2.63;;;2.00;;
42802;SDS011;28447;48.682;9.022;2023-09-19T12:55:29;3.33;;;2.53;;
42802;SDS011;28447;48.682;9.022;2023-09-19T13:00:35;2.85;;;2.00;;
42802;SDS011;28447;48.682;9.022;2023-09-19T13:05:47;2.63;;;2.00;;
42802;SDS011;28447;48.682;9.022;2023-09-19T13:08:22;2.33;;;2.13;;
42802;SDS011;28447;48.682;9.022;2023-09-19T13:13:25;3.90;;;2.25;;
42802;SDS011;28447;48.682;9.022;2023-09-19T13:15:52;4.10;;;2.20;;
42802;SDS011;28447;48.682;9.022;2023-09-19T13:18:19;2.63;;;2.20;;
42802;SDS011;28447;48.682;9.022;2023-09-19T13:21:05;2.50;;;2.10;;
42802;SDS011;28447;48.682;9.022;2023-09-19T13:23:31;3.97;;;2.10;;
42802;SDS011;28447;48.682;9.022;2023-09-19T13:25:57;2.20;;;2.00;;
42802;SDS011;28447;48.682;9.022;2023-09-19T13:28:23;2.40;;;2.20;;
42802;SDS011;28447;48.682;9.022;2023-09-19T13:30:49;3.05;;;2.30;;
42802;SDS011;28447;48.682;9.022;2023-09-19T13:33:15;2.55;;;2.13;;
42802;SDS011;28447;48.682;9.022;2023-09-19T13:35:46;3.38;;;2.30;;
42802;SDS011;28447;48.682;9.022;2023-09-19T13:38:13;2.40;;;2.10;;
42802;SDS011;28447;48.682;9.022;2023-09-19T13:40:39;2.08;;;1.70;;
42802;SDS011;28447;48.682;9.022;2023-09-19T13:43:08;2.58;;;2.30;;
42802;SDS011;28447;48.682;9.022;2023-09-19T13:45:36;3.53;;;2.47;;
42802;SDS011;28447;48.682;9.022;2023-09-19T13:48:02;3.70;;;2.53;;
42802;SDS011;28447;48.682;9.022;2023-09-19T13:50:28;2.30;;;2.10;;
42802;SDS011;28447;48.682;9.022;2023-09-19T13:52:54;2.78;;;2.47;;
42802;SDS011;28447;48.682;9.022;2023-09-19T13:55:20;2.78;;;2.58;;
42802;SDS011;28447;48.682;9.022;2023-09-19T13:57:49;3.67;;;2.22;;
42802;SDS011;28447;48.682;9.022;2023-09-19T14:00:17;2.83;;;2.63;;
42802;SDS011;28447;48.682;9.022;2023-09-19T14:02:44;2.20;;;2.00;;
42802;SDS011;28447;48.682;9.022;2023-09-19T14:05:11;2.30;;;2.10;;
42802;SDS011;28447;48.682;9.022;2023-09-19T14:07:41;2.30;;;2.10;;
42802;SDS011;28447;48.682;9.022;2023-09-19T14:10:08;4.72;;;2.00;;
42802;SDS011;28447;48.682;9.022;2023-09-19T14:12:35;3.03;;;2.28;;
42802;SDS011;28447;48.682;9.022;2023-09-19T14:15:01;2.40;;;2.20;;
42802;SDS011;28447;48.682;9.022;2023-09-19T14:17:27;2.72;;;2.53;;
42802;SDS011;28447;48.682;9.022;2023-09-19T14:19:53;2.93;;;2.60;;
42802;SDS011;28447;48.682;9.022;2023-09-19T14:22:19;2.50;;;2.30;;
42802;SDS011;28447;48.682;9.022;2023-09-19T14:24:45;3.00;;;2.70;;
42802;SDS011;28447;48.682;9.022;2023-09-19T14:27:11;2.93;;;2.30;;
42802;SDS011;28447;48.682;9.022;2023-09-19T14:29:37;3.03;;;2.50;;
42802;SDS011;28447;48.682;9.022;2023-09-19T14:32:04;2.30;;;2.10;;
42802;SDS011;28447;48.682;9.022;2023-09-19T14:34:30;3.60;;;2.40;;
42802;SDS011;28447;48.682;9.022;2023-09-19T14:36:56;9.82;;;2.58;;
42802;SDS011;28447;48.682;9.022;2023-09-19T14:39:22;2.67;;;2.43;;
42802;SDS011;28447;48.682;9.022;2023-09-19T14:41:49;3.40;;;3.10;;
42802;SDS011;28447;48.682;9.022;2023-09-19T14:44:15;2.80;;;2.20;;
42802;SDS011;28447;48.682;9.022;2023-09-19T14:46:41;2.80;;;2.60;;
42802;SDS011;28447;48.682;9.022;2023-09-19T14:49:09;2.58;;;2.38;;
42802;SDS011;28447;48.682;9.022;2023-09-19T14:51:35;5.47;;;3.10;;
42802;SDS011;28447;48.682;9.022;2023-09-19T14:54:04;3.93;;;3.07;;
42802;SDS011;28447;48.682;9.022;2023-09-19T14:56:32;3.00;;;2.20;;
42802;SDS011;28447;48.682;9.022;2023-09-19T14:58:58;2.53;;;2.00;;
42802;SDS011;28447;48.682;9.022;2023-09-19T15:01:24;3.83;;;2.17;;
42802;SDS011;28447;48.682;9.022;2023-09-19T15:03:51;3.40;;;2.30;;
42802;SDS011;28447;48.682;9.022;2023-09-19T15:06:19;2.40;;;2.20;;
42802;SDS011;28447;48.682;9.022;2023-09-19T15:08:45;2.30;;;2.10;;
42802;SDS011;28447;48.682;9.022;2023-09-19T15:11:19;2.53;;;2.33;;
42802;SDS011;28447;48.682;9.022;2023-09-19T15:13:45;2.20;;;2.00;;
42802;SDS011;28447;48.682;9.022;2023-09-19T15:16:12;2.78;;;2.20;;
42802;SDS011;28447;48.682;9.022;2023-09-19T15:18:39;2.22;;;2.03;;
42802;SDS011;28447;48.682;9.022;2023-09-19T15:21:07;2.23;;;1.73;;
42802;SDS011;28447;48.682;9.022;2023-09-19T15:23:34;3.23;;;2.30;;
42802;SDS011;28447;48.682;9.022;2023-09-19T15:26:01;3.90;;;2.17;;
42802;SDS011;28447;48.682;9.022;2023-09-19T15:28:28;2.53;;;2.10;;
42802;SDS011;28447;48.682;9.022;2023-09-19T15:31:01;2.63;;;2.43;;
42802;SDS011;28447;48.682;9.022;2023-09-19T15:33:27;2.40;;;2.17;;
42802;SDS011;28447;48.682;9.022;2023-09-19T15:36:03;4.57;;;2.30;;
42802;SDS011;28447;48.682;9.022;2023-09-19T15:38:30;2.57;;;2.03;;
42802;SDS011;28447;48.682;9.022;2023-09-19T15:40:57;2.30;;;2.00;;
42802;SDS011;28447;48.682;9.022;2023-09-19T15:43:23;2.63;;;2.23;;
42802;SDS011;28447;48.682;9.022;2023-09-19T15:45:49;2.50;;;2.07;;
42802;SDS011;28447;48.682;9.022;2023-09-19T15:48:15;1.97;;;1.67;;
42802;SDS011;28447;48.682;9.022;2023-09-19T15:50:42;2.20;;;2.00;;
42802;SDS011;28447;48.682;9.022;2023-09-19T15:53:09;2.97;;;2.20;;
42802;SDS011;28447;48.682;9.022;2023-09-19T15:55:38;2.53;;;1.87;;
42802;SDS011;28447;48.682;9.022;2023-09-19T15:58:05;5.50;;;2.07;;
42802;SDS011;28447;48.682;9.022;2023-09-19T16:00:31;2.90;;;2.23;;
42802;SDS011;28447;48.682;9.022;2023-09-19T16:03:01;4.30;;;2.20;;
42802;SDS011;28447;48.682;9.022;2023-09-19T16:05:27;2.10;;;1.90;;
42802;SDS011;28447;48.682;9.022;2023-09-19T16:07:53;2.90;;;1.90;;
42802;SDS011;28447;48.682;9.022;2023-09-19T16:10:19;2.17;;;1.97;;
42802;SDS011;28447;48.682;9.022;2023-09-19T16:12:46;2.13;;;1.93;;
42802;SDS011;28447;48.682;9.022;2023-09-19T16:15:12;2.50;;;1.93;;
42802;SDS011;28447;48.682;9.022;2023-09-19T16:17:40;3.20;;;2.10;;
42802;SDS011;28447;48.682;9.022;2023-09-19T16:20:06;2.30;;;2.10;;
42802;SDS011;28447;48.682;9.022;2023-09-19T16:22:33;2.40;;;2.10;;
42802;SDS011;28447;48.682;9.022;2023-09-19T16:24:58;3.90;;;1.87;;
42802;SDS011;28447;48.682;9.022;2023-09-19T16:27:24;2.40;;;2.20;;
42802;SDS011;28447;48.682;9.022;2023-09-19T16:29:50;2.47;;;2.13;;
42802;SDS011;28447;48.682;9.022;2023-09-19T16:32:17;4.13;;;2.17;;
42802;SDS011;28447;48.682;9.022;2023-09-19T16:34:44;2.77;;;2.20;;
42802;SDS011;28447;48.682;9.022;2023-09-19T16:37:11;3.70;;;2.47;;
42802;SDS011;28447;48.682;9.022;2023-09-19T16:39:39;2.00;;;1.70;;
42802;SDS011;28447;48.682;9.022;2023-09-19T16:42:06;3.60;;;2.50;;
42802;SDS011;28447;48.682;9.022;2023-09-19T16:44:33;4.17;;;2.40;;
42802;SDS011;28447;48.682;9.022;2023-09-19T16:46:59;2.63;;;2.10;;
42802;SDS011;28447;48.682;9.022;2023-09-19T16:49:28;3.83;;;2.60;;
42802;SDS011;28447;48.682;9.022;2023-09-19T16:51:54;2.77;;;2.33;;
42802;SDS011;28447;48.682;9.022;2023-09-19T16:54:20;2.37;;;2.13;;
42802;SDS011;28447;48.682;9.022;2023-09-19T16:56:46;2.27;;;2.00;;
42802;SDS011;28447;48.682;9.022;2023-09-19T16:59:12;2.30;;;2.10;;
42802;SDS011;28447;48.682;9.022;2023-09-19T17:01:39;2.27;;;2.07;;
42802;SDS011;28447;48.682;9.022;2023-09-19T17:04:05;3.20;;;2.17;;
42802;SDS011;28447;48.682;9.022;2023-09-19T17:06:33;2.37;;;2.10;;
42802;SDS011;28447;48.682;9.022;2023-09-19T17:08:59;2.27;;;1.97;;
42802;SDS011;28447;48.682;9.022;2023-09-19T17:11:25;3.27;;;2.10;;
42802;SDS011;28447;48.682;9.022;2023-09-19T17:13:53;2.73;;;2.20;;
42802;SDS011;28447;48.682;9.022;2023-09-19T17:16:19;6.13;;;2.50;;
42802;SDS011;28447;48.682;9.022;2023-09-19T17:18:49;2.93;;;2.40;;
42802;SDS011;28447;48.682;9.022;2023-09-19T17:21:16;3.50;;;1.90;;
42802;SDS011;28447;48.682;9.022;2023-09-19T17:23:42;2.10;;;1.90;;
42802;SDS011;28447;48.682;9.022;2023-09-19T17:26:09;4.00;;;2.17;;
42802;SDS011;28447;48.682;9.022;2023-09-19T17:28:36;4.77;;;2.23;;
42802;SDS011;28447;48.682;9.022;2023-09-19T17:31:02;3.20;;;2.10;;
42802;SDS011;28447;48.682;9.022;2023-09-19T17:33:34;2.20;;;1.90;;
42802;SDS011;28447;48.682;9.022;2023-09-19T17:36:06;6.87;;;2.00;;
42802;SDS011;28447;48.682;9.022;2023-09-19T17:38:35;4.90;;;2.60;;
42802;SDS011;28447;48.682;9.022;2023-09-19T17:41:05;2.70;;;2.33;;
42802;SDS011;28447;48.682;9.022;2023-09-19T17:43:33;2.97;;;2.50;;
42802;SDS011;28447;48.682;9.022;2023-09-19T17:46:12;2.33;;;2.13;;
42802;SDS011;28447;48.682;9.022;2023-09-19T17:48:40;2.70;;;2.00;;
42802;SDS011;28447;48.682;9.022;2023-09-19T17:51:08;2.40;;;2.10;;
42802;SDS011;28447;48.682;9.022;2023-09-19T17:53:37;3.70;;;2.37;;
42802;SDS011;28447;48.682;9.022;2023-09-19T17:56:05;4.67;;;2.50;;
42802;SDS011;28447;48.682;9.022;2023-09-19T17:58:35;4.33;;;2.50;;
42802;SDS011;28447;48.682;9.022;2023-09-19T18:01:07;3.00;;;2.10;;
42802;SDS011;28447;48.682;9.022;2023-09-19T18:03:37;2.40;;;2.20;;
42802;SDS011;28447;48.682;9.022;2023-09-19T18:06:04;4.93;;;2.57;;
42802;SDS011;28447;48.682;9.022;2023-09-19T18:08:30;5.57;;;2.53;;
42802;SDS011;28447;48.682;9.022;2023-09-19T18:10:55;4.47;;;2.80;;
42802;SDS011;28447;48.682;9.022;2023-09-19T18:13:22;5.00;;;2.50;;
42802;SDS011;28447;48.682;9.022;2023-09-19T18:15:48;2.60;;;2.40;;
42802;SDS011;28447;48.682;9.022;2023-09-19T18:18:14;3.10;;;2.50;;
42802;SDS011;28447;48.682;9.022;2023-09-19T18:20:40;3.77;;;2.50;;
42802;SDS011;28447;48.682;9.022;2023-09-19T18:23:06;4.20;;;2.67;;
42802;SDS011;28447;48.682;9.022;2023-09-19T18:25:33;3.67;;;2.60;;
42802;SDS011;28447;48.682;9.022;2023-09-19T18:28:00;3.33;;;2.57;;
42802;SDS011;28447;48.682;9.022;2023-09-19T18:30:28;3.87;;;2.60;;
42802;SDS011;28447;48.682;9.022;2023-09-19T18:32:54;3.20;;;2.63;;
42802;SDS011;28447;48.682;9.022;2023-09-19T18:35:20;2.80;;;2.33;;
42802;SDS011;28447;48.682;9.022;2023-09-19T18:37:48;4.00;;;2.60;;
42802;SDS011;28447;48.682;9.022;2023-09-19T18:40:17;2.97;;;2.40;;
42802;SDS011;28447;48.682;9.022;2023-09-19T18:42:43;6.13;;;3.00;;
42802;SDS011;28447;48.682;9.022;2023-09-19T18:45:09;4.20;;;2.57;;
42802;SDS011;28447;48.682;9.022;2023-09-19T18:47:37;7.40;;;2.80;;
42802;SDS011;28447;48.682;9.022;2023-09-19T18:50:03;4.40;;;2.90;;
42802;SDS011;28447;48.682;9.022;2023-09-19T18:52:30;3.80;;;2.90;;
42802;SDS011;28447;48.682;9.022;2023-09-19T18:54:56;4.17;;;3.00;;
42802;SDS011;28447;48.682;9.022;2023-09-19T18:57:22;7.07;;;3.47;;
42802;SDS011;28447;48.682;9.022;2023-09-19T18:59:51;3.40;;;3.10;;
42802;SDS011;28447;48.682;9.022;2023-09-19T19:02:16;3.20;;;2.60;;
42802;SDS011;28447;48.682;9.022;2023-09-19T19:04:42;4.93;;;2.90;;
42802;SDS011;28447;48.682;9.022;2023-09-19T19:07:08;7.93;;;2.80;;
42802;SDS011;28447;48.682;9.022;2023-09-19T19:09:39;5.43;;;3.13;;
42802;SDS011;28447;48.682;9.022;2023-09-19T19:12:06;3.77;;;3.10;;
42802;SDS011;28447;48.682;9.022;2023-09-19T19:14:33;6.80;;;3.30;;
42802;SDS011;28447;48.682;9.022;2023-09-19T19:17:00;3.70;;;3.20;;
42802;SDS011;28447;48.682;9.022;2023-09-19T19:19:26;3.43;;;2.80;;
42802;SDS011;28447;48.682;9.022;2023-09-19T19:21:52;5.50;;;2.97;;
42802;SDS011;28447;48.682;9.022;2023-09-19T19:24:19;4.60;;;3.30;;
42802;SDS011;28447;48.682;9.022;2023-09-19T19:26:45;6.63;;;3.40;;
42802;SDS011;28447;48.682;9.022;2023-09-19T19:29:12;4.10;;;3.37;;
42802;SDS011;28447;48.682;9.022;2023-09-19T19:31:39;4.40;;;3.70;;
42802;SDS011;28447;48.682;9.022;2023-09-19T19:34:05;9.27;;;3.30;;
42802;SDS011;28447;48.682;9.022;2023-09-19T19:36:34;5.33;;;3.47;;
42802;SDS011;28447;48.682;9.022;2023-09-19T19:39:00;5.80;;;3.40;;
42802;SDS011;28447;48.682;9.022;2023-09-19T19:41:27;4.13;;;3.37;;
42802;SDS011;28447;48.682;9.022;2023-09-19T19:43:53;4.27;;;3.50;;
42802;SDS011;28447;48.682;9.022;2023-09-19T19:46:20;4.67;;;3.80;;
42802;SDS011;28447;48.682;9.022;2023-09-19T19:48:49;5.90;;;3.40;;
42802;SDS011;28447;48.682;9.022;2023-09-19T19:51:16;8.40;;;3.50;;
42802;SDS011;28447;48.682;9.022;2023-09-19T19:53:42;6.37;;;3.23;;
42802;SDS011;28447;48.682;9.022;2023-09-19T19:56:08;4.93;;;3.57;;